Celebrity Solstice — 9HRJ9 — position and weather

sailwx.info

Track history (hours):
 
Tides and Currents Weather Stations Pressure Air Temp Water Temp Dewpoint Dewpoint Depression Visibility Wind Speed Wind Dir Waves Ship Positions

Celebrity Solstice

Last reported at 2019-Jan-23 19:00 UTC. Time now 2019-Jan-24 06:39 UTC.
Position S 45°48' E 170°36'.

Length 317 m; draft 9 m.

Type: Ship. MMSI: 249409000.

Wind from 270 at 11 knots

Barometer 1012.0 mb
Air temperature 10.0 ° C
Visibility: greater than 10.8 NM
Water temperature 17.0 ° C

Date/timePositionNaut miles runAvg speedWind from/ knotsBaromVisibWave heightAir tempDewpointWater temp
2019-Jan-23 19:00S 45°48' E 170°36'8610.7 270 / 111012.010.8 10.0 17.0
2019-Jan-23 11:00S 44°42' E 171°54'69 6.3 220 / 331005.010.8 11.0 15.3
2019-Jan-23 00:00S 43°48' E 172°54'0 0.0 190 / 131005.010.8 19.0 19.5
2019-Jan-22 19:00S 43°48' E 172°54'8412.0 160 / 18999.010.8 17.0 20.0
2019-Jan-22 12:00S 42°36' E 173°54'6 6.0 290 / 301005.0 5.4 23.0 20.0
2019-Jan-22 11:00S 42°30' E 173°54'2534.2 270 / 171005.010.8 22.0 21.0
2019-Jan-22 10:15S 42°09' E 174°12'521.2
2019-Jan-22 10:00S 42°04' E 174°15'1121.1
2019-Jan-22 09:30S 41°54' E 174°20'1021.1
2019-Jan-22 09:00S 41°44' E 174°26'1020.4
2019-Jan-22 08:30S 41°34' E 174°27'1020.2
2019-Jan-22 08:00S 41°24' E 174°28'7448.8
2019-Jan-22 08:00S 41°18' E 174°24'5 9.6 040 / 301007.010.8 17.0 18.0
2019-Jan-22 07:30S 41°15' E 174°29'816.0
2019-Jan-22 07:00S 41°07' E 174°30'714.1
2019-Jan-22 06:30S 41°01' E 174°25'815.5
2019-Jan-22 06:01S 41°06' E 174°17'713.8
2019-Jan-22 05:30S 41°12' E 174°11'815.4
2019-Jan-22 05:01S 41°15' E 174°02'2 4.3
2019-Jan-22 04:30S 41°16' E 174°00'0 0.0
2019-Jan-22 03:59S 41°16' E 174°00'0 0.0
2019-Jan-22 02:57S 41°16' E 174°00'0 0.0
2019-Jan-22 02:28S 41°16' E 174°00'0 0.0
2019-Jan-22 02:00S 41°16' E 174°00'2549.6
2019-Jan-22 01:29S 41°21' E 174°33'2548.5
2019-Jan-22 00:58S 41°16' E 174°00'0 0.0
2019-Jan-22 00:28S 41°16' E 174°00'0 0.0
2019-Jan-21 23:58S 41°16' E 174°00'0 0.0
2019-Jan-21 23:30S 41°16' E 174°00'0 0.0
2019-Jan-21 23:00S 41°16' E 174°00'6521.4
2019-Jan-21 23:00S 41°12' E 173°54'613.1 050 / 111007.010.8 20.0 20.7
2019-Jan-21 22:30S 41°16' E 174°00'0 0.0
2019-Jan-21 22:00S 41°16' E 174°00'0 0.0
2019-Jan-21 21:30S 41°16' E 174°00'0 0.0
2019-Jan-21 21:01S 41°16' E 174°00'0 0.0
2019-Jan-21 20:29S 41°16' E 174°00'0 0.0
2019-Jan-21 20:01S 41°16' E 174°00'4265.6
2019-Jan-21 20:00S 41°12' E 174°00'4 8.8 1012.010.8 22.0 19.0
2019-Jan-21 19:29S 41°16' E 174°00'0 0.0
2019-Jan-21 19:01S 41°16' E 174°00'1 1.2
2019-Jan-21 18:30S 41°16' E 174°01'4 7.2
2019-Jan-21 18:00S 41°14' E 174°05'714.7
2019-Jan-21 17:31S 41°10' E 174°13'714.1
2019-Jan-21 17:00S 41°05' E 174°19'4 7.0
2019-Jan-21 16:30S 41°02' E 174°21'3 6.6
2019-Jan-21 16:00S 40°59' E 174°24'4 7.0
2019-Jan-21 15:30S 40°56' E 174°27'4 8.6
2019-Jan-21 15:00S 40°53' E 174°30'4 8.1
2019-Jan-21 14:30S 40°53' E 174°36'4 8.1
2019-Jan-21 14:00S 40°55' E 174°40'3216.0
2019-Jan-21 14:00S 40°54' E 174°36'714.7 190 / 141005.010.8 16.0 17.5
2019-Jan-21 13:30S 40°57' E 174°44'4 8.0
2019-Jan-21 13:00S 41°01' E 174°46'8511.0
2019-Jan-21 13:00S 40°54' E 174°42'1122.5 100 / 141007.010.8 18.0 19.2
2019-Jan-21 12:30S 41°05' E 174°43'4 8.8
2019-Jan-21 12:00S 41°08' E 174°39'3222.8
2019-Jan-21 12:00S 41°06' E 174°36'5 9.6 140 / 41005.010.8 21.0 20.0
2019-Jan-21 11:30S 41°11' E 174°37'3 6.3
2019-Jan-21 11:00S 41°13' E 174°35'3 6.0
2019-Jan-21 10:30S 41°16' E 174°33'2 4.3
2019-Jan-21 10:01S 41°18' E 174°32'2 3.3
2019-Jan-21 09:31S 41°19' E 174°33'2 3.6
2019-Jan-21 09:00S 41°21' E 174°33'1 2.7
2019-Jan-21 08:30S 41°22' E 174°34'1 2.5
2019-Jan-21 08:00S 41°23' E 174°35'2 3.8
2019-Jan-21 07:30S 41°24' E 174°38'2 4.5
2019-Jan-21 07:00S 41°24' E 174°41'7488.8
2019-Jan-21 07:00S 41°18' E 174°36'918.4 330 / 161002.5 5.4 20.0 17.0
2019-Jan-21 06:30S 41°24' E 174°45'3 5.7
2019-Jan-21 06:00S 41°23' E 174°49'7 9.1
2019-Jan-21 05:13S 41°16' E 174°48'1 4.1
2019-Jan-21 05:00S 41°16' E 174°47'0 0.1
2019-Jan-21 04:15S 41°16' E 174°47'6 2.5
2019-Jan-21 02:00S 41°12' E 174°42'6190.8 350 / 221007.010.8 20.0 19.8
2019-Jan-21 01:58S 41°16' E 174°47'0 0.0
2019-Jan-21 01:09S 41°16' E 174°47'0 0.0
2019-Jan-21 00:51S 41°16' E 174°47'0 0.0
2019-Jan-21 00:27S 41°16' E 174°47'0 0.0
2019-Jan-20 23:51S 41°16' E 174°47'0 0.0
2019-Jan-20 23:21S 41°16' E 174°47'0 0.0
2019-Jan-20 22:57S 41°16' E 174°47'0 0.0
2019-Jan-20 21:21S 41°16' E 174°47'6 4.2
2019-Jan-20 20:00S 41°12' E 174°42'6 5.4 330 / 301005.010.8 17.0 19.0
2019-Jan-20 18:57S 41°16' E 174°47'0 0.0
2019-Jan-20 18:30S 41°16' E 174°47'4 7.0
2019-Jan-20 18:00S 41°18' E 174°51'713.0
2019-Jan-20 17:30S 41°24' E 174°48'714.3
2019-Jan-20 17:00S 41°30' E 174°54'816.0
2019-Jan-20 16:30S 41°34' E 175°02'815.8
2019-Jan-20 16:00S 41°39' E 175°11'714.3
2019-Jan-20 15:30S 41°40' E 175°20'2315.1
2019-Jan-20 14:00S 41°30' E 175°48'1818.1 310 / 351007.010.8 21.0 20.0
2019-Jan-20 13:00S 41°18' E 176°06'8016.0 310 / 371007.010.8 20.0 19.0
2019-Jan-20 08:00S 40°12' E 177°06'5614.0 280 / 461006.010.8 19.0 22.6
2019-Jan-20 04:00S 39°30' E 177°54'3517.6 170 / 191005.010.8 23.0 23.0
2019-Jan-20 02:00S 39°00' E 178°18'9015.1 180 / 201007.010.8 21.0 20.0
2019-Jan-19 20:00S 37°30' E 178°30'3416.9 250 / 181009.010.8 20.0 23.0
2019-Jan-19 18:00S 37°24' E 177°48'722.5 260 / 201009.510.8 21.5 24.0
2019-Jan-19 17:41S 37°25' E 177°40'619.0
2019-Jan-19 17:22S 37°25' E 177°32'718.9
2019-Jan-19 17:00S 37°24' E 177°23'030.5
2019-Jan-19 17:00S 37°24' E 177°24'1020.3 270 / 191009.4 21.5 24.0
2019-Jan-19 16:30S 37°23' E 177°12'918.5
2019-Jan-19 16:00S 37°24' E 177°00'020.5
2019-Jan-19 16:00S 37°24' E 177°00'918.8 270 / 191009.710.8 21.5 24.2
2019-Jan-19 15:31S 37°25' E 176°49'918.3
2019-Jan-19 15:00S 37°27' E 176°37'918.4
2019-Jan-19 14:30S 37°28' E 176°26'918.0
2019-Jan-19 14:00S 37°32' E 176°16'714.0
2019-Jan-19 13:30S 37°38' E 176°10'2 4.1
2019-Jan-19 12:59S 37°40' E 176°11'1 2.0
2019-Jan-19 12:31S 37°39' E 176°11'5 9.3
2019-Jan-19 12:00S 37°34' E 176°13'6525.2
2019-Jan-19 12:00S 37°30' E 176°18'2 5.1 270 / 151004.010.8 22.0 21.0
2019-Jan-19 11:30S 37°29' E 176°21'1020.7
2019-Jan-19 11:00S 37°27' E 176°34'1020.5
2019-Jan-19 10:30S 37°26' E 176°46'1020.9
2019-Jan-19 10:00S 37°24' E 176°59'816.1
2019-Jan-19 09:31S 37°22' E 177°09'611.5
2019-Jan-19 09:00S 37°24' E 177°02'612.6
2019-Jan-19 08:30S 37°25' E 176°54'612.6
2019-Jan-19 08:00S 37°26' E 176°47'4248.6
2019-Jan-19 08:00S 37°24' E 176°42'4 7.8 320 / 161012.010.8 21.1 24.6
2019-Jan-19 07:30S 37°27' E 176°39'612.7
2019-Jan-19 07:00S 37°28' E 176°31'612.8
2019-Jan-19 06:30S 37°29' E 176°23'612.5
2019-Jan-19 06:01S 37°32' E 176°16'612.3
2019-Jan-19 05:31S 37°36' E 176°11'2 4.1
2019-Jan-19 05:00S 37°38' E 176°11'0 0.0
2019-Jan-19 04:28S 37°38' E 176°11'0 0.0
2019-Jan-19 03:58S 37°38' E 176°11'0 0.0
2019-Jan-19 03:28S 37°38' E 176°11'0 0.0
2019-Jan-19 02:58S 37°38' E 176°11'0 0.0
2019-Jan-19 02:28S 37°38' E 176°11'0 0.0
2019-Jan-19 02:00S 37°38' E 176°11'0 0.0
2019-Jan-19 01:30S 37°38' E 176°11'0 0.0
2019-Jan-19 01:00S 37°38' E 176°11'0 0.0
2019-Jan-19 00:30S 37°38' E 176°11'0 0.0
2019-Jan-19 00:00S 37°38' E 176°11'0 0.0
2019-Jan-18 23:30S 37°38' E 176°11'0 0.0
2019-Jan-18 23:00S 37°38' E 176°11'5311.6
2019-Jan-18 23:00S 37°36' E 176°06'5 9.4 260 / 21004.0 5.4 24.0 21.5
2019-Jan-18 22:30S 37°38' E 176°11'0 0.0
2019-Jan-18 22:00S 37°38' E 176°11'0 0.0
2019-Jan-18 21:30S 37°38' E 176°11'0 0.0
2019-Jan-18 21:00S 37°38' E 176°11'0 0.0
2019-Jan-18 20:30S 37°38' E 176°11'5 9.2
2019-Jan-18 20:00S 37°36' E 176°06'5323.8 1015.010.8 22.3 23.0
2019-Jan-18 19:59S 37°38' E 176°11'0 0.0
2019-Jan-18 19:29S 37°38' E 176°11'0 0.0
2019-Jan-18 18:59S 37°38' E 176°11'0 0.0
2019-Jan-18 18:30S 37°38' E 176°11'2 3.8
2019-Jan-18 18:00S 37°37' E 176°11'612.4
2019-Jan-18 17:30S 37°31' E 176°14'815.6
2019-Jan-18 17:00S 37°24' E 176°18'815.5
2019-Jan-18 16:30S 37°17' E 176°22'610.7
2019-Jan-18 16:00S 37°12' E 176°18'668.8 240 / 201011.510.8 20.9 23.3
2019-Jan-18 15:54S 37°07' E 176°22'3216.8
2019-Jan-18 14:00S 36°36' E 176°12'1312.9 250 / 211004.010.8 22.0 21.0
2019-Jan-18 13:00S 36°24' E 176°06'2323.1 260 / 211014.010.8 21.0 20.6
2019-Jan-18 12:00S 36°06' E 175°48'4220.9 240 / 181004.010.8 21.0 20.6
2019-Jan-18 10:00S 35°36' E 175°12'59 6.5 240 / 211015.210.8 20.5 22.9
2019-Jan-18 01:00S 35°12' E 174°06'14 1.6 190 / 101014.010.8 21.0 20.0
2019-Jan-17 16:16S 35°07' E 174°22'515.3
2019-Jan-17 15:58S 35°10' E 174°27'715.9
2019-Jan-17 15:30S 35°14' E 174°34'3414.3
2019-Jan-17 13:07S 35°44' E 174°53'428.9
2019-Jan-17 13:00S 35°48' E 174°54'1818.0 220 / 281013.010.8 21.0 20.0
2019-Jan-17 12:00S 36°06' E 174°54'810.8 210 / 151013.010.8 21.0 20.0
2019-Jan-17 11:13S 36°14' E 174°56'210.6
2019-Jan-17 11:00S 36°17' E 174°57'610.5
2019-Jan-17 10:26S 36°22' E 174°59'510.8
2019-Jan-17 09:59S 36°27' E 175°00'510.5
2019-Jan-17 09:30S 36°32' E 175°00'510.2
2019-Jan-17 09:00S 36°37' E 174°58'510.7
2019-Jan-17 08:30S 36°41' E 174°54'510.5
2019-Jan-17 08:00S 36°45' E 174°50'510.0
2019-Jan-17 07:29S 36°50' E 174°49'2 3.4
2019-Jan-17 06:47S 36°50' E 174°46'0 0.0
2019-Jan-17 06:29S 36°50' E 174°46'0 0.0
2019-Jan-17 05:58S 36°50' E 174°46'0 0.0
2019-Jan-17 05:22S 36°50' E 174°46'0 0.0
2019-Jan-17 04:52S 36°50' E 174°46'0 0.0
2019-Jan-17 04:28S 36°50' E 174°46'0 0.0
2019-Jan-17 03:58S 36°50' E 174°46'0 0.0
2019-Jan-17 02:58S 36°50' E 174°46'0 0.0
2019-Jan-17 02:29S 36°50' E 174°46'0 0.0
2019-Jan-17 02:00S 36°50' E 174°46'0 0.0
2019-Jan-17 01:30S 36°50' E 174°46'0 0.0
2019-Jan-17 01:00S 36°50' E 174°46'0 0.0
2019-Jan-17 00:30S 36°50' E 174°46'0 0.0
2019-Jan-17 00:00S 36°50' E 174°46'4347.9
2019-Jan-17 00:00S 36°48' E 174°42'4 6.7 210 / 141011.0 5.4 21.0 20.0
2019-Jan-16 23:24S 36°50' E 174°46'0 0.0
2019-Jan-16 23:00S 36°50' E 174°46'0 0.0
2019-Jan-16 22:30S 36°50' E 174°46'0 0.0
2019-Jan-16 22:00S 36°50' E 174°46'0 0.0
2019-Jan-16 21:30S 36°50' E 174°46'0 0.0
2019-Jan-16 21:00S 36°50' E 174°46'0 0.0
2019-Jan-16 20:30S 36°50' E 174°46'0 0.0
2019-Jan-16 20:00S 36°50' E 174°46'0 0.0
2019-Jan-16 19:30S 36°50' E 174°46'0 0.0
2019-Jan-16 19:00S 36°50' E 174°46'0 0.0
2019-Jan-16 18:30S 36°50' E 174°46'0 0.0
2019-Jan-16 18:00S 36°50' E 174°46'0 0.0
2019-Jan-16 17:30S 36°50' E 174°46'0 0.4
2019-Jan-16 17:00S 36°50' E 174°46'3 6.6
2019-Jan-16 16:30S 36°49' E 174°50'611.1
2019-Jan-16 16:01S 36°44' E 174°51'5 9.1
2019-Jan-16 15:30S 36°40' E 174°54'4 9.0
2019-Jan-16 15:01S 36°37' E 174°58'5 9.6
2019-Jan-16 14:31S 36°33' E 175°03'5 9.5
2019-Jan-16 14:01S 36°30' E 175°07'5 9.6
2019-Jan-16 13:29S 36°27' E 175°11'5 9.7
2019-Jan-16 13:00S 36°23' E 175°16'45 8.9
2019-Jan-16 08:00S 36°42' E 176°06'3116.7 260 / 151014.010.8 20.1 20.0
2019-Jan-16 06:08S 37°11' E 176°19'311.7
2019-Jan-16 05:54S 37°14' E 176°20'512.1
2019-Jan-16 05:31S 37°19' E 176°19'611.9
2019-Jan-16 05:00S 37°24' E 176°18'612.0
2019-Jan-16 04:31S 37°30' E 176°15'712.5
2019-Jan-16 03:59S 37°36' E 176°11'3 5.8
2019-Jan-16 03:30S 37°39' E 176°11'0 0.0
2019-Jan-16 03:00S 37°38' E 176°11'0 0.0
2019-Jan-16 02:30S 37°38' E 176°11'0 0.0
2019-Jan-16 02:00S 37°38' E 176°11'0 0.0
2019-Jan-16 01:30S 37°38' E 176°11'0 0.0
2019-Jan-16 01:00S 37°38' E 176°11'0 0.0
2019-Jan-16 00:29S 37°38' E 176°11'0 0.0
2019-Jan-15 23:59S 37°38' E 176°11'0 0.0
2019-Jan-15 23:29S 37°38' E 176°11'0 0.0
2019-Jan-15 22:59S 37°38' E 176°11'0 0.0
2019-Jan-15 22:29S 37°38' E 176°11'0 0.0
2019-Jan-15 21:59S 37°38' E 176°11'0 0.0
2019-Jan-15 21:29S 37°38' E 176°11'0 0.0
2019-Jan-15 20:59S 37°38' E 176°11'0 0.0
2019-Jan-15 20:29S 37°38' E 176°11'5 9.3
2019-Jan-15 20:00S 37°36' E 176°06'5 5.1 230 / 101008.010.8 20.0 21.4
2019-Jan-15 19:05S 37°38' E 176°11'0 0.0
2019-Jan-15 18:59S 37°38' E 176°11'0 0.0
2019-Jan-15 18:29S 37°38' E 176°11'0 0.0
2019-Jan-15 18:00S 37°38' E 176°11'0 0.0
2019-Jan-15 17:29S 37°38' E 176°11'0 0.0
2019-Jan-15 16:58S 37°38' E 176°11'0 0.0
2019-Jan-15 16:28S 37°38' E 176°11'0 0.0
2019-Jan-15 16:00S 37°38' E 176°11'2 3.5
2019-Jan-15 15:31S 37°37' E 176°10'611.4
2019-Jan-15 15:00S 37°32' E 176°15'713.3
2019-Jan-15 14:30S 37°29' E 176°22'713.3
2019-Jan-15 14:01S 37°28' E 176°30'713.4
2019-Jan-15 13:31S 37°27' E 176°39'713.4
2019-Jan-15 13:00S 37°26' E 176°47'713.7
2019-Jan-15 12:30S 37°25' E 176°56'713.5
2019-Jan-15 12:01S 37°24' E 177°04'3187.2
2019-Jan-15 12:00S 37°24' E 177°00'1020.4 180 / 191006.010.8 20.4 23.4
2019-Jan-15 11:30S 37°23' E 177°12'713.6
2019-Jan-15 11:00S 37°24' E 177°21'713.6
2019-Jan-15 10:30S 37°24' E 177°30'713.2
2019-Jan-15 10:00S 37°25' E 177°38'1312.7
2019-Jan-15 09:00S 37°24' E 177°54'1414.5 170 / 71007.010.8 19.314.523.2
2019-Jan-15 08:00S 37°27' E 178°12'33 8.3
2019-Jan-15 04:00S 37°54' E 178°36'2424.5 090 / 111008.010.8 22.0 21.0
2019-Jan-15 03:00S 38°18' E 178°30'7212.0 080 / 71008.010.8 20.9 21.8
2019-Jan-14 21:00S 39°24' E 177°54'5814.5 100 / 171014.010.8 19.0 20.0
2019-Jan-14 17:00S 40°12' E 177°12'3015.1 030 / 241007.5 2.2 19.4 21.1
2019-Jan-14 15:00S 40°36' E 176°48'2010.1 190 / 251008.010.8 18.4 19.7
2019-Jan-14 13:00S 40°54' E 176°36'5117.0 190 / 211009.010.8 18.1 19.3
2019-Jan-14 10:00S 41°30' E 175°48'9 9.0 180 / 61014.0 5.4 16.4 15.6
2019-Jan-14 09:00S 41°30' E 175°36'1214.5 180 / 111014.0 5.4 16.4 16.0
2019-Jan-14 08:08S 41°39' E 175°24'218.0
2019-Jan-14 08:01S 41°39' E 175°21'816.6
2019-Jan-14 07:30S 41°38' E 175°10'917.3
2019-Jan-14 07:00S 41°34' E 175°01'815.8
2019-Jan-14 06:30S 41°29' E 174°52'612.5
2019-Jan-14 06:00S 41°23' E 174°50'7 9.6
2019-Jan-14 05:18S 41°16' E 174°48'6 1.4
2019-Jan-14 01:00S 41°12' E 174°42'6 1.1 180 / 181002.010.8 16.7 20.3
2019-Jan-13 20:02S 41°16' E 174°47'6149.0
2019-Jan-13 20:00S 41°12' E 174°42'627.2 180 / 91005.0 5.4 16.4 16.0
2019-Jan-13 19:47S 41°16' E 174°47'0 0.0
2019-Jan-13 19:28S 41°16' E 174°47'  
Track history (hours):
 
Tides and Currents Weather Stations Pressure Air Temp Water Temp Dewpoint Dewpoint Depression Visibility Wind Speed Wind Dir Waves Ship Positions

Celebrity Solstice

Last reported at 2019-Jan-23 19:00 UTC. Time now 2019-Jan-24 06:39 UTC.
Position S 45°48' E 170°36'.

Length 317 m; draft 9 m.

Type: Ship. MMSI: 249409000.

Wind from 270 at 11 knots

Barometer 1012.0 mb
Air temperature 10.0 ° C
Visibility: greater than 10.8 NM
Water temperature 17.0 ° C

Date/timePositionNaut miles runAvg speedWind from/ knotsBaromVisibWave heightAir tempDewpointWater temp
2019-Jan-23 19:00S 45°48' E 170°36'8610.7 270 / 111012.010.8 10.0 17.0
2019-Jan-23 11:00S 44°42' E 171°54'69 6.3 220 / 331005.010.8 11.0 15.3
2019-Jan-23 00:00S 43°48' E 172°54'0 0.0 190 / 131005.010.8 19.0 19.5
2019-Jan-22 19:00S 43°48' E 172°54'8412.0 160 / 18999.010.8 17.0 20.0
2019-Jan-22 12:00S 42°36' E 173°54'6 6.0 290 / 301005.0 5.4 23.0 20.0
2019-Jan-22 11:00S 42°30' E 173°54'2534.2 270 / 171005.010.8 22.0 21.0
2019-Jan-22 10:15S 42°09' E 174°12'521.2
2019-Jan-22 10:00S 42°04' E 174°15'1121.1
2019-Jan-22 09:30S 41°54' E 174°20'1021.1
2019-Jan-22 09:00S 41°44' E 174°26'1020.4
2019-Jan-22 08:30S 41°34' E 174°27'1020.2
2019-Jan-22 08:00S 41°24' E 174°28'7448.8
2019-Jan-22 08:00S 41°18' E 174°24'5 9.6 040 / 301007.010.8 17.0 18.0
2019-Jan-22 07:30S 41°15' E 174°29'816.0
2019-Jan-22 07:00S 41°07' E 174°30'714.1
2019-Jan-22 06:30S 41°01' E 174°25'815.5
2019-Jan-22 06:01S 41°06' E 174°17'713.8
2019-Jan-22 05:30S 41°12' E 174°11'815.4
2019-Jan-22 05:01S 41°15' E 174°02'2 4.3
2019-Jan-22 04:30S 41°16' E 174°00'0 0.0
2019-Jan-22 03:59S 41°16' E 174°00'0 0.0
2019-Jan-22 02:57S 41°16' E 174°00'0 0.0
2019-Jan-22 02:28S 41°16' E 174°00'0 0.0
2019-Jan-22 02:00S 41°16' E 174°00'2549.6
2019-Jan-22 01:29S 41°21' E 174°33'2548.5
2019-Jan-22 00:58S 41°16' E 174°00'0 0.0
2019-Jan-22 00:28S 41°16' E 174°00'0 0.0
2019-Jan-21 23:58S 41°16' E 174°00'0 0.0
2019-Jan-21 23:30S 41°16' E 174°00'0 0.0
2019-Jan-21 23:00S 41°16' E 174°00'6521.4
2019-Jan-21 23:00S 41°12' E 173°54'613.1 050 / 111007.010.8 20.0 20.7
2019-Jan-21 22:30S 41°16' E 174°00'0 0.0
2019-Jan-21 22:00S 41°16' E 174°00'0 0.0
2019-Jan-21 21:30S 41°16' E 174°00'0 0.0
2019-Jan-21 21:01S 41°16' E 174°00'0 0.0
2019-Jan-21 20:29S 41°16' E 174°00'0 0.0
2019-Jan-21 20:01S 41°16' E 174°00'4265.6
2019-Jan-21 20:00S 41°12' E 174°00'4 8.8 1012.010.8 22.0 19.0
2019-Jan-21 19:29S 41°16' E 174°00'0 0.0
2019-Jan-21 19:01S 41°16' E 174°00'1 1.2
2019-Jan-21 18:30S 41°16' E 174°01'4 7.2
2019-Jan-21 18:00S 41°14' E 174°05'714.7
2019-Jan-21 17:31S 41°10' E 174°13'714.1
2019-Jan-21 17:00S 41°05' E 174°19'4 7.0
2019-Jan-21 16:30S 41°02' E 174°21'3 6.6
2019-Jan-21 16:00S 40°59' E 174°24'4 7.0
2019-Jan-21 15:30S 40°56' E 174°27'4 8.6
2019-Jan-21 15:00S 40°53' E 174°30'4 8.1
2019-Jan-21 14:30S 40°53' E 174°36'4 8.1
2019-Jan-21 14:00S 40°55' E 174°40'3216.0
2019-Jan-21 14:00S 40°54' E 174°36'714.7 190 / 141005.010.8 16.0 17.5
2019-Jan-21 13:30S 40°57' E 174°44'4 8.0
2019-Jan-21 13:00S 41°01' E 174°46'8511.0
2019-Jan-21 13:00S 40°54' E 174°42'1122.5 100 / 141007.010.8 18.0 19.2
2019-Jan-21 12:30S 41°05' E 174°43'4 8.8
2019-Jan-21 12:00S 41°08' E 174°39'3222.8
2019-Jan-21 12:00S 41°06' E 174°36'5 9.6 140 / 41005.010.8 21.0 20.0
2019-Jan-21 11:30S 41°11' E 174°37'3 6.3
2019-Jan-21 11:00S 41°13' E 174°35'3 6.0
2019-Jan-21 10:30S 41°16' E 174°33'2 4.3
2019-Jan-21 10:01S 41°18' E 174°32'2 3.3
2019-Jan-21 09:31S 41°19' E 174°33'2 3.6
2019-Jan-21 09:00S 41°21' E 174°33'1 2.7
2019-Jan-21 08:30S 41°22' E 174°34'1 2.5
2019-Jan-21 08:00S 41°23' E 174°35'2 3.8
2019-Jan-21 07:30S 41°24' E 174°38'2 4.5
2019-Jan-21 07:00S 41°24' E 174°41'7488.8
2019-Jan-21 07:00S 41°18' E 174°36'918.4 330 / 161002.5 5.4 20.0 17.0
2019-Jan-21 06:30S 41°24' E 174°45'3 5.7
2019-Jan-21 06:00S 41°23' E 174°49'7 9.1
2019-Jan-21 05:13S 41°16' E 174°48'1 4.1
2019-Jan-21 05:00S 41°16' E 174°47'0 0.1
2019-Jan-21 04:15S 41°16' E 174°47'6 2.5
2019-Jan-21 02:00S 41°12' E 174°42'6190.8 350 / 221007.010.8 20.0 19.8
2019-Jan-21 01:58S 41°16' E 174°47'0 0.0
2019-Jan-21 01:09S 41°16' E 174°47'0 0.0
2019-Jan-21 00:51S 41°16' E 174°47'0 0.0
2019-Jan-21 00:27S 41°16' E 174°47'0 0.0
2019-Jan-20 23:51S 41°16' E 174°47'0 0.0
2019-Jan-20 23:21S 41°16' E 174°47'0 0.0
2019-Jan-20 22:57S 41°16' E 174°47'0 0.0
2019-Jan-20 21:21S 41°16' E 174°47'6 4.2
2019-Jan-20 20:00S 41°12' E 174°42'6 5.4 330 / 301005.010.8 17.0 19.0
2019-Jan-20 18:57S 41°16' E 174°47'0 0.0
2019-Jan-20 18:30S 41°16' E 174°47'4 7.0
2019-Jan-20 18:00S 41°18' E 174°51'713.0
2019-Jan-20 17:30S 41°24' E 174°48'714.3
2019-Jan-20 17:00S 41°30' E 174°54'816.0
2019-Jan-20 16:30S 41°34' E 175°02'815.8
2019-Jan-20 16:00S 41°39' E 175°11'714.3
2019-Jan-20 15:30S 41°40' E 175°20'2315.1
2019-Jan-20 14:00S 41°30' E 175°48'1818.1 310 / 351007.010.8 21.0 20.0
2019-Jan-20 13:00S 41°18' E 176°06'8016.0 310 / 371007.010.8 20.0 19.0
2019-Jan-20 08:00S 40°12' E 177°06'5614.0 280 / 461006.010.8 19.0 22.6
2019-Jan-20 04:00S 39°30' E 177°54'3517.6 170 / 191005.010.8 23.0 23.0
2019-Jan-20 02:00S 39°00' E 178°18'9015.1 180 / 201007.010.8 21.0 20.0
2019-Jan-19 20:00S 37°30' E 178°30'3416.9 250 / 181009.010.8 20.0 23.0
2019-Jan-19 18:00S 37°24' E 177°48'722.5 260 / 201009.510.8 21.5 24.0
2019-Jan-19 17:41S 37°25' E 177°40'619.0
2019-Jan-19 17:22S 37°25' E 177°32'718.9
2019-Jan-19 17:00S 37°24' E 177°23'030.5
2019-Jan-19 17:00S 37°24' E 177°24'1020.3 270 / 191009.4 21.5 24.0
2019-Jan-19 16:30S 37°23' E 177°12'918.5
2019-Jan-19 16:00S 37°24' E 177°00'020.5
2019-Jan-19 16:00S 37°24' E 177°00'918.8 270 / 191009.710.8 21.5 24.2
2019-Jan-19 15:31S 37°25' E 176°49'918.3
2019-Jan-19 15:00S 37°27' E 176°37'918.4
2019-Jan-19 14:30S 37°28' E 176°26'918.0
2019-Jan-19 14:00S 37°32' E 176°16'714.0
2019-Jan-19 13:30S 37°38' E 176°10'2 4.1
2019-Jan-19 12:59S 37°40' E 176°11'1 2.0
2019-Jan-19 12:31S 37°39' E 176°11'5 9.3
2019-Jan-19 12:00S 37°34' E 176°13'6525.2
2019-Jan-19 12:00S 37°30' E 176°18'2 5.1 270 / 151004.010.8 22.0 21.0
2019-Jan-19 11:30S 37°29' E 176°21'1020.7
2019-Jan-19 11:00S 37°27' E 176°34'1020.5
2019-Jan-19 10:30S 37°26' E 176°46'1020.9
2019-Jan-19 10:00S 37°24' E 176°59'816.1
2019-Jan-19 09:31S 37°22' E 177°09'611.5
2019-Jan-19 09:00S 37°24' E 177°02'612.6
2019-Jan-19 08:30S 37°25' E 176°54'612.6
2019-Jan-19 08:00S 37°26' E 176°47'4248.6
2019-Jan-19 08:00S 37°24' E 176°42'4 7.8 320 / 161012.010.8 21.1 24.6
2019-Jan-19 07:30S 37°27' E 176°39'612.7
2019-Jan-19 07:00S 37°28' E 176°31'612.8
2019-Jan-19 06:30S 37°29' E 176°23'612.5
2019-Jan-19 06:01S 37°32' E 176°16'612.3
2019-Jan-19 05:31S 37°36' E 176°11'2 4.1
2019-Jan-19 05:00S 37°38' E 176°11'0 0.0
2019-Jan-19 04:28S 37°38' E 176°11'0 0.0
2019-Jan-19 03:58S 37°38' E 176°11'0 0.0
2019-Jan-19 03:28S 37°38' E 176°11'0 0.0
2019-Jan-19 02:58S 37°38' E 176°11'0 0.0
2019-Jan-19 02:28S 37°38' E 176°11'0 0.0
2019-Jan-19 02:00S 37°38' E 176°11'0 0.0
2019-Jan-19 01:30S 37°38' E 176°11'0 0.0
2019-Jan-19 01:00S 37°38' E 176°11'0 0.0
2019-Jan-19 00:30S 37°38' E 176°11'0 0.0
2019-Jan-19 00:00S 37°38' E 176°11'0 0.0
2019-Jan-18 23:30S 37°38' E 176°11'0 0.0
2019-Jan-18 23:00S 37°38' E 176°11'5311.6
2019-Jan-18 23:00S 37°36' E 176°06'5 9.4 260 / 21004.0 5.4 24.0 21.5
2019-Jan-18 22:30S 37°38' E 176°11'0 0.0
2019-Jan-18 22:00S 37°38' E 176°11'0 0.0
2019-Jan-18 21:30S 37°38' E 176°11'0 0.0
2019-Jan-18 21:00S 37°38' E 176°11'0 0.0
2019-Jan-18 20:30S 37°38' E 176°11'5 9.2
2019-Jan-18 20:00S 37°36' E 176°06'5323.8 1015.010.8 22.3 23.0
2019-Jan-18 19:59S 37°38' E 176°11'0 0.0
2019-Jan-18 19:29S 37°38' E 176°11'0 0.0
2019-Jan-18 18:59S 37°38' E 176°11'0 0.0
2019-Jan-18 18:30S 37°38' E 176°11'2 3.8
2019-Jan-18 18:00S 37°37' E 176°11'612.4
2019-Jan-18 17:30S 37°31' E 176°14'815.6
2019-Jan-18 17:00S 37°24' E 176°18'815.5
2019-Jan-18 16:30S 37°17' E 176°22'610.7
2019-Jan-18 16:00S 37°12' E 176°18'668.8 240 / 201011.510.8 20.9 23.3
2019-Jan-18 15:54S 37°07' E 176°22'3216.8
2019-Jan-18 14:00S 36°36' E 176°12'1312.9 250 / 211004.010.8 22.0 21.0
2019-Jan-18 13:00S 36°24' E 176°06'2323.1 260 / 211014.010.8 21.0 20.6
2019-Jan-18 12:00S 36°06' E 175°48'4220.9 240 / 181004.010.8 21.0 20.6
2019-Jan-18 10:00S 35°36' E 175°12'59 6.5 240 / 211015.210.8 20.5 22.9
2019-Jan-18 01:00S 35°12' E 174°06'14 1.6 190 / 101014.010.8 21.0 20.0
2019-Jan-17 16:16S 35°07' E 174°22'515.3
2019-Jan-17 15:58S 35°10' E 174°27'715.9
2019-Jan-17 15:30S 35°14' E 174°34'3414.3
2019-Jan-17 13:07S 35°44' E 174°53'428.9
2019-Jan-17 13:00S 35°48' E 174°54'1818.0 220 / 281013.010.8 21.0 20.0
2019-Jan-17 12:00S 36°06' E 174°54'810.8 210 / 151013.010.8 21.0 20.0
2019-Jan-17 11:13S 36°14' E 174°56'210.6
2019-Jan-17 11:00S 36°17' E 174°57'610.5
2019-Jan-17 10:26S 36°22' E 174°59'510.8
2019-Jan-17 09:59S 36°27' E 175°00'510.5
2019-Jan-17 09:30S 36°32' E 175°00'510.2
2019-Jan-17 09:00S 36°37' E 174°58'510.7
2019-Jan-17 08:30S 36°41' E 174°54'510.5
2019-Jan-17 08:00S 36°45' E 174°50'510.0
2019-Jan-17 07:29S 36°50' E 174°49'2 3.4
2019-Jan-17 06:47S 36°50' E 174°46'0 0.0
2019-Jan-17 06:29S 36°50' E 174°46'0 0.0
2019-Jan-17 05:58S 36°50' E 174°46'0 0.0
2019-Jan-17 05:22S 36°50' E 174°46'0 0.0
2019-Jan-17 04:52S 36°50' E 174°46'0 0.0
2019-Jan-17 04:28S 36°50' E 174°46'0 0.0
2019-Jan-17 03:58S 36°50' E 174°46'0 0.0
2019-Jan-17 02:58S 36°50' E 174°46'0 0.0
2019-Jan-17 02:29S 36°50' E 174°46'0 0.0
2019-Jan-17 02:00S 36°50' E 174°46'0 0.0
2019-Jan-17 01:30S 36°50' E 174°46'0 0.0
2019-Jan-17 01:00S 36°50' E 174°46'0 0.0
2019-Jan-17 00:30S 36°50' E 174°46'0 0.0
2019-Jan-17 00:00S 36°50' E 174°46'4347.9
2019-Jan-17 00:00S 36°48' E 174°42'4 6.7 210 / 141011.0 5.4 21.0 20.0
2019-Jan-16 23:24S 36°50' E 174°46'0 0.0
2019-Jan-16 23:00S 36°50' E 174°46'0 0.0
2019-Jan-16 22:30S 36°50' E 174°46'0 0.0
2019-Jan-16 22:00S 36°50' E 174°46'0 0.0
2019-Jan-16 21:30S 36°50' E 174°46'0 0.0
2019-Jan-16 21:00S 36°50' E 174°46'0 0.0
2019-Jan-16 20:30S 36°50' E 174°46'0 0.0
2019-Jan-16 20:00S 36°50' E 174°46'0 0.0
2019-Jan-16 19:30S 36°50' E 174°46'0 0.0
2019-Jan-16 19:00S 36°50' E 174°46'0 0.0
2019-Jan-16 18:30S 36°50' E 174°46'0 0.0
2019-Jan-16 18:00S 36°50' E 174°46'0 0.0
2019-Jan-16 17:30S 36°50' E 174°46'0 0.4
2019-Jan-16 17:00S 36°50' E 174°46'3 6.6
2019-Jan-16 16:30S 36°49' E 174°50'611.1
2019-Jan-16 16:01S 36°44' E 174°51'5 9.1
2019-Jan-16 15:30S 36°40' E 174°54'4 9.0
2019-Jan-16 15:01S 36°37' E 174°58'5 9.6
2019-Jan-16 14:31S 36°33' E 175°03'5 9.5
2019-Jan-16 14:01S 36°30' E 175°07'5 9.6
2019-Jan-16 13:29S 36°27' E 175°11'5 9.7
2019-Jan-16 13:00S 36°23' E 175°16'45 8.9
2019-Jan-16 08:00S 36°42' E 176°06'3116.7 260 / 151014.010.8 20.1 20.0
2019-Jan-16 06:08S 37°11' E 176°19'311.7
2019-Jan-16 05:54S 37°14' E 176°20'512.1
2019-Jan-16 05:31S 37°19' E 176°19'611.9
2019-Jan-16 05:00S 37°24' E 176°18'612.0
2019-Jan-16 04:31S 37°30' E 176°15'712.5
2019-Jan-16 03:59S 37°36' E 176°11'3 5.8
2019-Jan-16 03:30S 37°39' E 176°11'0 0.0
2019-Jan-16 03:00S 37°38' E 176°11'0 0.0
2019-Jan-16 02:30S 37°38' E 176°11'0 0.0
2019-Jan-16 02:00S 37°38' E 176°11'0 0.0
2019-Jan-16 01:30S 37°38' E 176°11'0 0.0
2019-Jan-16 01:00S 37°38' E 176°11'0 0.0
2019-Jan-16 00:29S 37°38' E 176°11'0 0.0
2019-Jan-15 23:59S 37°38' E 176°11'0 0.0
2019-Jan-15 23:29S 37°38' E 176°11'0 0.0
2019-Jan-15 22:59S 37°38' E 176°11'0 0.0
2019-Jan-15 22:29S 37°38' E 176°11'0 0.0
2019-Jan-15 21:59S 37°38' E 176°11'0 0.0
2019-Jan-15 21:29S 37°38' E 176°11'0 0.0
2019-Jan-15 20:59S 37°38' E 176°11'0 0.0
2019-Jan-15 20:29S 37°38' E 176°11'5 9.3
2019-Jan-15 20:00S 37°36' E 176°06'5 5.1 230 / 101008.010.8 20.0 21.4
2019-Jan-15 19:05S 37°38' E 176°11'0 0.0
2019-Jan-15 18:59S 37°38' E 176°11'0 0.0
2019-Jan-15 18:29S 37°38' E 176°11'0 0.0
2019-Jan-15 18:00S 37°38' E 176°11'0 0.0
2019-Jan-15 17:29S 37°38' E 176°11'0 0.0
2019-Jan-15 16:58S 37°38' E 176°11'0 0.0
2019-Jan-15 16:28S 37°38' E 176°11'0 0.0
2019-Jan-15 16:00S 37°38' E 176°11'2 3.5
2019-Jan-15 15:31S 37°37' E 176°10'611.4
2019-Jan-15 15:00S 37°32' E 176°15'713.3
2019-Jan-15 14:30S 37°29' E 176°22'713.3
2019-Jan-15 14:01S 37°28' E 176°30'713.4
2019-Jan-15 13:31S 37°27' E 176°39'713.4
2019-Jan-15 13:00S 37°26' E 176°47'713.7
2019-Jan-15 12:30S 37°25' E 176°56'713.5
2019-Jan-15 12:01S 37°24' E 177°04'3187.2
2019-Jan-15 12:00S 37°24' E 177°00'1020.4 180 / 191006.010.8 20.4 23.4
2019-Jan-15 11:30S 37°23' E 177°12'713.6
2019-Jan-15 11:00S 37°24' E 177°21'713.6
2019-Jan-15 10:30S 37°24' E 177°30'713.2
2019-Jan-15 10:00S 37°25' E 177°38'1312.7
2019-Jan-15 09:00S 37°24' E 177°54'1414.5 170 / 71007.010.8 19.314.523.2
2019-Jan-15 08:00S 37°27' E 178°12'33 8.3
2019-Jan-15 04:00S 37°54' E 178°36'2424.5 090 / 111008.010.8 22.0 21.0
2019-Jan-15 03:00S 38°18' E 178°30'7212.0 080 / 71008.010.8 20.9 21.8
2019-Jan-14 21:00S 39°24' E 177°54'5814.5 100 / 171014.010.8 19.0 20.0
2019-Jan-14 17:00S 40°12' E 177°12'3015.1 030 / 241007.5 2.2 19.4 21.1
2019-Jan-14 15:00S 40°36' E 176°48'2010.1 190 / 251008.010.8 18.4 19.7
2019-Jan-14 13:00S 40°54' E 176°36'5117.0 190 / 211009.010.8 18.1 19.3
2019-Jan-14 10:00S 41°30' E 175°48'9 9.0 180 / 61014.0 5.4 16.4 15.6
2019-Jan-14 09:00S 41°30' E 175°36'1214.5 180 / 111014.0 5.4 16.4 16.0
2019-Jan-14 08:08S 41°39' E 175°24'218.0
2019-Jan-14 08:01S 41°39' E 175°21'816.6
2019-Jan-14 07:30S 41°38' E 175°10'917.3
2019-Jan-14 07:00S 41°34' E 175°01'815.8
2019-Jan-14 06:30S 41°29' E 174°52'612.5
2019-Jan-14 06:00S 41°23' E 174°50'7 9.6
2019-Jan-14 05:18S 41°16' E 174°48'6 1.4
2019-Jan-14 01:00S 41°12' E 174°42'6 1.1 180 / 181002.010.8 16.7 20.3
2019-Jan-13 20:02S 41°16' E 174°47'6149.0
2019-Jan-13 20:00S 41°12' E 174°42'627.2 180 / 91005.0 5.4 16.4 16.0
2019-Jan-13 19:47S 41°16' E 174°47'0 0.0
2019-Jan-13 19:28S 41°16' E 174°47'  

Dump ship's entire track history